Airfield :
LOGIN :

Register | Disclaimer

   EN    FR    IT 

 










Legend :    VFR   Marginal VFR   IFR   Intensive IFR   Very Intensive IFR
Visi :
Ceiling :
>= 8 km
>= 3000ft
5 to 8 km
1000 to 3000 ft
1500m to 5 km
500 to 1000 ft
800 to 1500m
200 to 500 ft
< 800m
< 200 ft
Symbols :   Thunderstorms  Fog  Heavy snow  Heavy precipitations  Wind > 20 kt
SIGMETs :     Misc.  Thunderstorms  Icing  Turbulence  Mountain Waves  Volcanic Ashes






- Airport Elevation : 79 ft
- IATA code : NSY


LICZ - Sigonella (Mil) Catania

CURRENT METAR :
  • 211255Z 28007KT 9999 BKN080 18/12 Q1015 RMK BKN VIS MIN 9999 WIND THR28 29007KT WIND THR10 /////KT A2999 BLU

EXPIRED METARs :
  • 211155Z 28008KT 9999 SCT080 17/10 Q1015 RMK BKN VIS MIN 9999 WIND THR28 29008KT WIND THR10 /////KT A3000 BLU
  • 211055Z 28007KT 9999 SCT090 17/10 Q1016 RMK BKN SCT200 VIS MIN 9999 WIND THR28 29008KT WIND THR10 /////KT A3002 BLU

TAF TAF LICZ
Valid from the 21 at 12:00 until the 22 at 12:00 UTC


211100Z 2112/2212 27007KT 9999 FEW020 SCT070
TEMPO 2121/2205 VRB03KT 5000 BR



MET'MAP, your aeronautical weather chart ! - Copyright ORBIFLY December 2007 - Disclaimer

ORBIFLY MET'MAP TEAM :

Programming & Development : Alexandra Zaïnal
Concept & Development : Baudouin d'Aumeries
Co-Development & Prog : Marc-Olivier Méhu
Technical & hardware support : Manuel Goepfert

Contact : metmap@orbifly.com




SOURCES & CREDITS :

   NOAA